createdAt,value
2023-04-03T00:00:38.438Z,1.87
2023-04-03T00:03:05.107Z,2.13
2023-04-03T00:05:31.729Z,2.10
2023-04-03T00:07:58.206Z,2.27
2023-04-03T00:10:24.841Z,2.13
2023-04-03T00:20:10.873Z,1.90
2023-04-03T00:22:37.251Z,1.97
2023-04-03T00:25:04.394Z,2.37
2023-04-03T00:27:31.146Z,1.83
2023-04-03T00:29:57.568Z,2.33
2023-04-03T00:32:24.140Z,2.10
2023-04-03T00:34:50.742Z,2.30
2023-04-03T00:42:09.940Z,2.20
2023-04-03T00:44:36.277Z,2.70
2023-04-03T00:47:04.956Z,2.27
2023-04-03T00:56:52.749Z,2.00
2023-04-03T00:59:26.217Z,2.07
2023-04-03T01:01:55.865Z,1.83
2023-04-03T01:04:32.401Z,2.00
2023-04-03T01:07:02.384Z,1.97
2023-04-03T01:09:29.780Z,2.10
2023-04-03T01:12:13.912Z,2.40
2023-04-03T01:14:40.438Z,1.90
2023-04-03T01:17:33.660Z,1.73
2023-04-03T01:20:32.418Z,2.03
2023-04-03T01:23:11.064Z,1.97
2023-04-03T01:25:41.600Z,2.30
2023-04-03T01:28:11.550Z,1.80
2023-04-03T01:30:57.842Z,2.10
2023-04-03T01:33:24.548Z,2.10
2023-04-03T01:35:51.199Z,1.93
2023-04-03T01:38:17.710Z,2.20
2023-04-03T01:40:44.194Z,2.33
2023-04-03T01:43:11.067Z,2.10
2023-04-03T01:45:37.573Z,2.07
2023-04-03T01:48:04.066Z,2.60
2023-04-03T01:50:30.439Z,3.47
2023-04-03T01:52:56.861Z,2.00
2023-04-03T01:55:23.271Z,2.10
2023-04-03T01:57:49.727Z,2.17
2023-04-03T02:00:16.469Z,2.00
2023-04-03T02:02:42.965Z,2.53
2023-04-03T02:05:09.694Z,2.30
2023-04-03T02:07:36.129Z,2.07
2023-04-03T02:10:02.665Z,2.57
2023-04-03T02:12:29.062Z,2.23
2023-04-03T02:14:55.564Z,2.27
2023-04-03T02:17:22.088Z,2.40
2023-04-03T02:19:48.686Z,2.20
2023-04-03T02:22:15.160Z,1.90
2023-04-03T02:24:42.385Z,2.20
2023-04-03T02:27:08.796Z,2.53
2023-04-03T02:29:35.313Z,2.33
2023-04-03T02:32:01.841Z,2.10
2023-04-03T02:34:28.308Z,1.70
2023-04-03T02:36:54.710Z,2.13
2023-04-03T02:39:21.276Z,2.17
2023-04-03T02:41:47.637Z,2.00
2023-04-03T02:44:14.259Z,2.53
2023-04-03T02:46:40.745Z,2.60
2023-04-03T02:49:07.377Z,2.30
2023-04-03T02:51:33.831Z,1.70
2023-04-03T02:54:00.601Z,2.27
2023-04-03T02:56:27.806Z,1.90
2023-04-03T02:58:54.234Z,1.90
2023-04-03T03:01:21.517Z,2.77
2023-04-03T03:03:47.924Z,2.30
2023-04-03T03:06:16.307Z,1.93
2023-04-03T03:08:43.021Z,1.90
2023-04-03T03:11:10.399Z,1.87
2023-04-03T03:13:36.881Z,2.00
2023-04-03T03:16:03.688Z,2.10
2023-04-03T03:18:30.426Z,1.80
2023-04-03T03:20:58.866Z,2.20
2023-04-03T03:23:27.050Z,2.00
2023-04-03T03:26:01.049Z,1.80
2023-04-03T03:28:27.584Z,1.70
2023-04-03T03:30:54.126Z,2.07
2023-04-03T03:33:20.621Z,2.17
2023-04-03T03:35:47.484Z,2.10
2023-04-03T03:38:13.948Z,1.93
2023-04-03T03:40:40.678Z,2.10
2023-04-03T03:43:07.149Z,2.00
2023-04-03T03:45:33.587Z,2.37
2023-04-03T03:48:00.069Z,1.90
2023-04-03T03:50:26.619Z,2.30
2023-04-03T03:52:53.074Z,2.10
2023-04-03T03:55:19.528Z,1.90
2023-04-03T03:57:46.037Z,2.10
2023-04-03T04:00:12.890Z,2.03
2023-04-03T04:02:39.484Z,3.10
2023-04-03T04:05:06.207Z,9.97
2023-04-03T04:07:32.597Z,5.97
2023-04-03T04:09:59.025Z,2.33
2023-04-03T04:12:25.457Z,2.20
2023-04-03T04:14:51.873Z,2.33
2023-04-03T04:17:18.469Z,2.00
2023-04-03T04:19:44.897Z,2.10
2023-04-03T04:22:11.372Z,2.30
2023-04-03T04:24:38.611Z,1.97
2023-04-03T04:27:06.184Z,1.90
2023-04-03T04:29:36.585Z,1.80
2023-04-03T04:32:04.022Z,2.10
2023-04-03T04:34:31.091Z,2.10
2023-04-03T04:36:57.812Z,2.20
2023-04-03T04:39:24.445Z,1.90
2023-04-03T04:41:50.836Z,1.90
2023-04-03T04:44:17.351Z,2.10
2023-04-03T04:46:44.086Z,2.00
2023-04-03T04:49:10.754Z,2.07
2023-04-03T04:51:48.320Z,2.17
2023-04-03T04:54:17.985Z,2.17
2023-04-03T04:56:44.414Z,2.00
2023-04-03T04:59:10.971Z,2.07
2023-04-03T05:01:37.604Z,2.20
2023-04-03T05:04:04.095Z,2.20
2023-04-03T05:06:32.708Z,3.70
2023-04-03T05:08:59.589Z,2.53
2023-04-03T05:11:26.877Z,2.67
2023-04-03T05:13:53.622Z,2.17
2023-04-03T05:16:20.376Z,1.90
2023-04-03T05:18:46.883Z,2.30
2023-04-03T05:21:13.418Z,2.50
2023-04-03T05:23:39.828Z,2.70
2023-04-03T05:26:06.893Z,2.23
2023-04-03T05:28:33.406Z,2.40
2023-04-03T05:31:00.243Z,1.77
2023-04-03T05:33:27.278Z,1.97
2023-04-03T05:35:54.339Z,2.43
2023-04-03T05:38:21.391Z,1.80
2023-04-03T05:40:47.897Z,2.37
2023-04-03T05:43:14.386Z,2.40
2023-04-03T05:45:40.893Z,1.80
2023-04-03T05:48:07.382Z,2.10
2023-04-03T05:50:33.823Z,2.20
2023-04-03T05:53:00.385Z,1.87
2023-04-03T05:55:26.801Z,1.97
2023-04-03T05:57:53.280Z,2.30
2023-04-03T06:00:20.030Z,1.97
2023-04-03T06:02:46.547Z,2.17
2023-04-03T06:05:14.133Z,2.17
2023-04-03T06:07:40.848Z,2.00
2023-04-03T06:10:07.853Z,2.67
2023-04-03T06:12:34.274Z,1.87
2023-04-03T06:15:00.690Z,1.90
2023-04-03T06:17:27.992Z,2.30
2023-04-03T06:19:54.505Z,1.97
2023-04-03T06:22:20.911Z,1.93
2023-04-03T06:24:47.524Z,2.03
2023-04-03T06:27:14.040Z,2.00
2023-04-03T06:29:40.877Z,2.13
2023-04-03T06:32:07.317Z,1.83
2023-04-03T06:34:34.426Z,2.23
2023-04-03T06:37:00.912Z,1.93
2023-04-03T06:39:28.268Z,1.63
2023-04-03T06:41:54.749Z,2.17
2023-04-03T06:44:21.131Z,2.00
2023-04-03T06:46:47.786Z,1.67
2023-04-03T06:49:14.293Z,1.67
2023-04-03T06:51:40.862Z,2.33
2023-04-03T06:54:09.342Z,1.80
2023-04-03T06:56:36.541Z,1.83
2023-04-03T06:59:03.733Z,1.77
2023-04-03T07:01:30.877Z,2.20
2023-04-03T07:03:57.626Z,2.20
2023-04-03T07:06:24.256Z,1.93
2023-04-03T07:08:51.369Z,2.00
2023-04-03T07:11:17.918Z,1.70
2023-04-03T07:13:44.325Z,1.83
2023-04-03T07:16:11.086Z,2.00
2023-04-03T07:18:37.549Z,1.80
2023-04-03T07:21:04.977Z,1.87
2023-04-03T07:23:31.510Z,1.70
2023-04-03T07:25:58.042Z,1.90
2023-04-03T07:28:25.330Z,1.50
2023-04-03T07:30:54.242Z,1.80
2023-04-03T07:33:22.727Z,1.57
2023-04-03T07:35:49.374Z,1.70
2023-04-03T07:38:17.038Z,1.50
2023-04-03T07:40:48.018Z,1.50
2023-04-03T07:43:15.590Z,1.80
2023-04-03T07:45:42.206Z,1.53
2023-04-03T07:48:08.606Z,1.60
2023-04-03T07:50:35.038Z,1.60
2023-04-03T07:53:01.765Z,1.77
2023-04-03T07:55:28.200Z,1.40
2023-04-03T07:57:54.660Z,1.50
2023-04-03T08:00:21.360Z,1.50
2023-04-03T08:02:52.626Z,1.47
2023-04-03T08:05:20.105Z,1.40
2023-04-03T08:07:47.616Z,1.10
2023-04-03T08:10:15.143Z,1.50
2023-04-03T08:12:41.922Z,1.30
2023-04-03T08:15:09.655Z,1.00
2023-04-03T08:17:36.531Z,1.23
2023-04-03T08:20:05.430Z,1.27
2023-04-03T08:22:32.077Z,1.10
2023-04-03T08:24:59.674Z,1.57
2023-04-03T08:27:28.383Z,1.10
2023-04-03T08:29:55.512Z,1.33
2023-04-03T08:32:21.909Z,1.30
2023-04-03T08:34:48.336Z,1.20
2023-04-03T08:37:14.799Z,1.27
2023-04-03T08:39:41.305Z,1.37
2023-04-03T08:42:17.221Z,1.30
2023-04-03T08:45:15.875Z,1.10
2023-04-03T08:47:55.383Z,0.90
2023-04-03T08:50:30.984Z,1.13
2023-04-03T08:52:59.094Z,1.40
2023-04-03T08:55:28.643Z,1.40
2023-04-03T08:58:22.261Z,1.43
2023-04-03T09:00:52.008Z,1.10
2023-04-03T09:03:20.814Z,1.50
2023-04-03T09:06:09.151Z,1.10
2023-04-03T09:08:48.327Z,0.90
2023-04-03T09:11:24.714Z,1.00
2023-04-03T09:14:15.524Z,1.10
2023-04-03T09:17:01.856Z,1.00
2023-04-03T09:19:31.436Z,1.20
2023-04-03T09:21:59.606Z,0.87
2023-04-03T09:24:26.480Z,1.20
2023-04-03T09:27:00.277Z,1.10
2023-04-03T09:29:27.119Z,1.10
2023-04-03T09:31:57.778Z,1.00
2023-04-03T09:34:27.448Z,1.00
2023-04-03T09:36:56.656Z,0.80
2023-04-03T09:39:25.903Z,0.87
2023-04-03T09:42:01.216Z,1.03
2023-04-03T09:44:33.825Z,0.97
2023-04-03T09:47:00.497Z,0.90
2023-04-03T09:49:27.198Z,0.87
2023-04-03T09:51:54.704Z,1.00
2023-04-03T09:54:38.383Z,1.10
2023-04-03T09:57:12.686Z,0.83
2023-04-03T10:00:01.490Z,0.80
2023-04-03T10:02:40.610Z,0.90
2023-04-03T10:05:30.567Z,0.77
2023-04-03T10:08:12.405Z,1.13
2023-04-03T10:10:39.453Z,1.10
2023-04-03T10:13:20.593Z,0.90
2023-04-03T10:16:18.562Z,1.00
2023-04-03T10:18:48.687Z,0.87
2023-04-03T10:21:32.090Z,1.37
2023-04-03T10:24:07.060Z,0.87
2023-04-03T10:26:38.728Z,0.97
2023-04-03T10:29:42.655Z,0.90
2023-04-03T10:32:43.007Z,1.00
2023-04-03T10:35:19.636Z,1.10
2023-04-03T10:38:06.629Z,1.10
2023-04-03T10:40:48.310Z,1.07
2023-04-03T10:43:23.815Z,0.80
2023-04-03T10:45:58.476Z,1.10
2023-04-03T10:48:37.115Z,0.90
2023-04-03T10:51:23.303Z,1.03
2023-04-03T10:54:10.431Z,1.00
2023-04-03T10:56:41.269Z,1.17
2023-04-03T10:59:28.317Z,1.10
2023-04-03T11:01:58.212Z,1.50
2023-04-03T11:04:28.759Z,1.17
2023-04-03T11:07:02.910Z,1.17
2023-04-03T11:09:32.747Z,1.47
2023-04-03T11:12:14.346Z,1.07
2023-04-03T11:14:41.314Z,1.10
2023-04-03T11:17:24.898Z,1.00
2023-04-03T11:20:07.954Z,0.87
2023-04-03T11:22:44.047Z,1.00
2023-04-03T11:25:11.372Z,1.10
2023-04-03T11:27:57.107Z,1.20
2023-04-03T11:30:32.397Z,1.20
2023-04-03T11:33:07.277Z,1.07
2023-04-03T11:35:34.441Z,1.00
2023-04-03T11:38:01.704Z,1.10
2023-04-03T11:40:36.054Z,1.20
2023-04-03T11:43:05.256Z,1.10
2023-04-03T11:45:37.136Z,1.07
2023-04-03T11:48:29.660Z,0.90
2023-04-03T11:50:56.977Z,1.10
2023-04-03T11:53:32.479Z,0.90
2023-04-03T11:56:01.298Z,1.17
2023-04-03T11:58:33.256Z,1.20
2023-04-03T12:01:08.811Z,1.20
2023-04-03T12:03:41.495Z,1.27
2023-04-03T12:06:07.963Z,1.30
2023-04-03T12:08:34.408Z,1.20
2023-04-03T12:11:09.974Z,1.00
2023-04-03T12:13:41.256Z,1.53
2023-04-03T12:16:27.930Z,1.40
2023-04-03T12:18:54.396Z,1.17
2023-04-03T12:21:52.917Z,1.33
2023-04-03T12:24:22.288Z,1.57
2023-04-03T12:27:20.157Z,1.20
2023-04-03T12:30:04.894Z,1.70
2023-04-03T12:32:40.484Z,1.30
2023-04-03T12:35:29.134Z,1.33
2023-04-03T12:38:16.012Z,1.40
2023-04-03T12:41:04.227Z,1.67
2023-04-03T12:43:51.560Z,1.60
2023-04-03T12:46:23.342Z,1.63
2023-04-03T12:48:56.217Z,1.63
2023-04-03T12:51:29.532Z,1.10
2023-04-03T12:54:03.003Z,1.37
2023-04-03T12:56:33.635Z,1.47
2023-04-03T12:59:28.741Z,1.70
2023-04-03T13:01:59.912Z,1.40
2023-04-03T13:04:28.018Z,1.40
2023-04-03T13:06:54.557Z,1.40
2023-04-03T13:09:28.667Z,1.43
2023-04-03T13:12:02.349Z,1.03
2023-04-03T13:14:29.998Z,1.70
2023-04-03T13:16:58.551Z,1.80
2023-04-03T13:19:29.578Z,1.37
2023-04-03T13:22:02.335Z,1.50
2023-04-03T13:24:30.889Z,1.77
2023-04-03T13:26:57.441Z,1.40
2023-04-03T13:29:33.080Z,1.20
2023-04-03T13:32:01.379Z,1.27
2023-04-03T13:34:38.324Z,1.27
2023-04-03T13:37:05.796Z,1.27
2023-04-03T13:39:40.313Z,1.37
2023-04-03T13:42:37.593Z,1.10
2023-04-03T13:45:29.059Z,1.50
2023-04-03T13:48:22.177Z,1.50
2023-04-03T13:51:02.424Z,1.30
2023-04-03T13:53:30.874Z,1.20
2023-04-03T13:56:00.847Z,1.20
2023-04-03T13:58:32.155Z,1.47
2023-04-03T14:01:08.034Z,1.20
2023-04-03T14:03:42.403Z,1.17
2023-04-03T14:06:13.539Z,1.37
2023-04-03T14:08:43.287Z,1.40
2023-04-03T14:11:14.881Z,1.60
2023-04-03T14:13:41.620Z,1.63
2023-04-03T14:16:15.627Z,1.43
2023-04-03T14:18:42.473Z,1.70
2023-04-03T14:21:11.715Z,1.50
2023-04-03T14:23:38.750Z,1.70
2023-04-03T14:26:10.965Z,1.33
2023-04-03T14:28:37.404Z,1.60
2023-04-03T14:31:04.137Z,1.40
2023-04-03T14:33:32.115Z,1.40
2023-04-03T14:35:58.593Z,1.73
2023-04-03T14:38:27.801Z,1.50
2023-04-03T14:40:57.072Z,1.43
2023-04-03T14:43:26.262Z,1.30
2023-04-03T14:45:52.920Z,1.40
2023-04-03T14:48:23.030Z,1.40
2023-04-03T14:51:04.662Z,1.20
2023-04-03T14:53:38.789Z,1.40
2023-04-03T14:56:23.265Z,1.50
2023-04-03T14:58:51.826Z,1.43
2023-04-03T15:01:18.912Z,1.70
2023-04-03T15:03:45.882Z,1.33
2023-04-03T15:06:14.202Z,1.60
2023-04-03T15:08:43.027Z,1.50
2023-04-03T15:11:10.957Z,1.40
2023-04-03T15:13:38.296Z,1.77
2023-04-03T15:16:06.214Z,1.40
2023-04-03T15:18:38.172Z,1.47
2023-04-03T15:21:05.594Z,1.53
2023-04-03T15:23:32.238Z,1.30
2023-04-03T15:25:58.821Z,1.50
2023-04-03T15:28:36.647Z,1.60
2023-04-03T15:31:03.450Z,1.80
2023-04-03T15:33:30.073Z,1.57
2023-04-03T15:36:06.520Z,1.50
2023-04-03T15:38:34.583Z,1.50
2023-04-03T15:41:01.076Z,2.17
2023-04-03T15:43:27.627Z,2.10
2023-04-03T15:45:58.016Z,1.30
2023-04-03T15:48:24.511Z,2.00
2023-04-03T15:50:51.086Z,1.80
2023-04-03T15:53:17.523Z,2.97
2023-04-03T15:55:44.010Z,1.97
2023-04-03T15:58:12.078Z,1.80
2023-04-03T16:00:39.303Z,1.50
2023-04-03T16:03:09.936Z,1.53
2023-04-03T16:05:37.585Z,2.07
2023-04-03T16:08:04.708Z,1.43
2023-04-03T16:10:31.339Z,2.00
2023-04-03T16:12:57.877Z,1.83
2023-04-03T16:15:25.344Z,1.40
2023-04-03T16:17:52.121Z,1.67
2023-04-03T16:20:19.643Z,1.90
2023-04-03T16:22:46.341Z,1.80
2023-04-03T16:25:13.188Z,1.80
2023-04-03T16:27:40.962Z,1.40
2023-04-03T16:30:08.393Z,1.80
2023-04-03T16:32:35.630Z,1.40
2023-04-03T16:37:33.714Z,1.57
2023-04-03T16:40:00.163Z,1.90
2023-04-03T16:42:26.625Z,1.60
2023-04-03T16:44:52.995Z,1.80
2023-04-03T16:47:20.685Z,1.83
2023-04-03T16:49:48.124Z,1.60
2023-04-03T16:52:15.353Z,1.67
2023-04-03T16:54:42.021Z,1.67
2023-04-03T16:57:08.600Z,1.80
2023-04-03T16:59:35.395Z,1.97
2023-04-03T17:02:01.866Z,2.13
2023-04-03T17:04:28.329Z,1.70
2023-04-03T17:06:55.675Z,1.77
2023-04-03T17:09:23.646Z,1.63
2023-04-03T17:11:50.204Z,1.70
2023-04-03T17:14:16.706Z,1.50
2023-04-03T17:16:43.415Z,1.60
2023-04-03T17:19:09.928Z,1.80
2023-04-03T17:21:36.685Z,1.87
2023-04-03T17:24:04.781Z,1.90
2023-04-03T17:26:31.399Z,1.93
2023-04-03T17:28:57.871Z,1.90
2023-04-03T17:31:24.415Z,1.90
2023-04-03T17:33:50.915Z,2.23
2023-04-03T17:36:17.317Z,1.70
2023-04-03T17:38:43.761Z,1.67
2023-04-03T17:41:10.432Z,1.60
2023-04-03T17:43:36.939Z,2.23
2023-04-03T17:46:05.593Z,2.37
2023-04-03T17:48:33.137Z,2.43
2023-04-03T17:51:00.204Z,2.57
2023-04-03T17:53:27.642Z,2.10
2023-04-03T17:55:54.080Z,2.33
2023-04-03T17:58:20.810Z,2.27
2023-04-03T18:00:47.216Z,3.10
2023-04-03T18:03:13.962Z,3.10
2023-04-03T18:05:40.648Z,1.70
2023-04-03T18:08:07.537Z,1.63
2023-04-03T18:10:36.656Z,1.60
2023-04-03T18:13:05.760Z,1.87
2023-04-03T18:15:32.274Z,2.20
2023-04-03T18:17:58.724Z,2.03
2023-04-03T18:20:25.197Z,1.70
2023-04-03T18:22:52.504Z,1.63
2023-04-03T18:25:19.245Z,2.47
2023-04-03T18:27:46.740Z,1.70
2023-04-03T18:30:15.390Z,2.30
2023-04-03T18:32:41.801Z,2.23
2023-04-03T18:35:09.458Z,2.20
2023-04-03T18:37:36.165Z,2.13
2023-04-03T18:40:02.663Z,1.90
2023-04-03T18:42:29.052Z,2.03
2023-04-03T18:44:58.671Z,2.10
2023-04-03T18:47:25.296Z,2.10
2023-04-03T18:49:51.717Z,2.00
2023-04-03T18:52:18.142Z,2.13
2023-04-03T18:54:44.651Z,2.33
2023-04-03T18:57:11.397Z,2.30
2023-04-03T18:59:38.617Z,2.17
2023-04-03T19:02:06.113Z,2.40
2023-04-03T19:04:32.545Z,1.97
2023-04-03T19:06:59.096Z,2.17
2023-04-03T19:09:26.220Z,1.80
2023-04-03T19:11:52.632Z,1.90
2023-04-03T19:14:19.016Z,1.80
2023-04-03T19:16:45.486Z,1.90
2023-04-03T19:19:12.101Z,1.60
2023-04-03T19:21:41.305Z,2.00
2023-04-03T19:24:09.885Z,2.37
2023-04-03T19:26:36.402Z,1.63
2023-04-03T19:29:02.863Z,1.70
2023-04-03T19:34:04.008Z,1.97
2023-04-03T19:36:31.211Z,2.00
2023-04-03T19:38:57.786Z,1.83
2023-04-03T19:41:25.797Z,1.90
2023-04-03T19:43:54.322Z,1.87
2023-04-03T19:46:25.315Z,1.80
2023-04-03T19:48:52.232Z,1.90
2023-04-03T19:51:18.708Z,1.50
2023-04-03T19:53:45.196Z,2.30
2023-04-03T19:56:11.750Z,1.90
2023-04-03T19:58:39.431Z,2.00
2023-04-03T20:01:06.104Z,1.80
2023-04-03T20:03:33.389Z,1.90
2023-04-03T20:06:00.492Z,2.00
2023-04-03T20:08:28.612Z,2.00
2023-04-03T20:10:55.960Z,1.87
2023-04-03T20:13:22.477Z,1.50
2023-04-03T20:15:49.044Z,1.70
2023-04-03T20:23:19.544Z,1.47
2023-04-03T20:25:57.679Z,1.67
2023-04-03T20:28:33.391Z,1.77
2023-04-03T20:31:02.181Z,1.80
2023-04-03T20:33:28.661Z,1.80
2023-04-03T20:35:56.796Z,1.70
2023-04-03T20:38:23.483Z,1.80
2023-04-03T20:40:49.997Z,1.63
2023-04-03T20:43:17.112Z,1.60
2023-04-03T20:45:43.593Z,1.87
2023-04-03T20:48:13.128Z,1.47
2023-04-03T20:50:41.197Z,1.70
2023-04-03T20:53:08.284Z,2.07
2023-04-03T20:55:35.067Z,1.80
2023-04-03T20:58:01.895Z,1.50
2023-04-03T21:00:32.120Z,1.70
2023-04-03T21:03:01.285Z,1.60
2023-04-03T21:05:30.320Z,1.67
2023-04-03T21:08:36.007Z,1.63
2023-04-03T21:11:40.092Z,1.70
2023-04-03T21:14:46.867Z,1.70
2023-04-03T21:17:13.447Z,2.07
2023-04-03T21:19:45.987Z,1.70
2023-04-03T21:22:13.591Z,2.00
2023-04-03T21:24:40.229Z,2.00
2023-04-03T21:27:06.701Z,1.70
2023-04-03T21:29:33.135Z,1.77
2023-04-03T21:32:01.536Z,2.27
2023-04-03T21:34:29.764Z,2.37
2023-04-03T21:37:04.609Z,1.60
2023-04-03T21:39:31.596Z,1.70
2023-04-03T21:41:58.017Z,1.80
2023-04-03T21:44:25.053Z,2.10
2023-04-03T21:46:54.723Z,1.70
2023-04-03T21:49:22.459Z,1.90
2023-04-03T21:51:51.324Z,1.63
2023-04-03T21:54:18.146Z,1.70
2023-04-03T21:56:44.683Z,1.83
2023-04-03T21:59:11.397Z,1.70
2023-04-03T22:01:38.020Z,1.93
2023-04-03T22:04:04.476Z,1.90
2023-04-03T22:06:31.171Z,2.00
2023-04-03T22:08:57.730Z,1.70
2023-04-03T22:11:27.547Z,1.87
2023-04-03T22:13:55.076Z,2.17
2023-04-03T22:16:23.431Z,1.83
2023-04-03T22:18:52.026Z,1.90
2023-04-03T22:21:18.770Z,2.10
2023-04-03T22:23:45.345Z,1.90
2023-04-03T22:26:13.132Z,1.80
2023-04-03T22:28:45.038Z,2.17
2023-04-03T22:33:41.099Z,2.00
2023-04-03T22:36:09.268Z,2.00
2023-04-03T22:38:35.746Z,1.80
2023-04-03T22:41:03.605Z,1.63
2023-04-03T22:43:31.543Z,1.80
2023-04-03T22:45:58.387Z,1.90
2023-04-03T22:48:24.824Z,2.10
2023-04-03T22:50:51.632Z,1.93
2023-04-03T22:53:18.677Z,2.00
2023-04-03T22:55:53.339Z,2.30
2023-04-03T23:00:49.839Z,1.90
2023-04-03T23:03:16.395Z,1.93
2023-04-03T23:05:42.811Z,2.43
2023-04-03T23:08:09.195Z,1.57
2023-04-03T23:10:35.705Z,2.07
2023-04-03T23:13:02.223Z,2.03
2023-04-03T23:15:28.628Z,2.33
2023-04-03T23:17:55.063Z,2.33
2023-04-03T23:20:21.535Z,2.07
2023-04-03T23:22:47.960Z,2.53
2023-04-03T23:25:14.367Z,2.10
2023-04-03T23:27:40.779Z,2.37
2023-04-03T23:30:07.883Z,2.40
2023-04-03T23:32:34.366Z,2.37
2023-04-03T23:35:00.875Z,2.17
2023-04-03T23:37:27.439Z,2.20
2023-04-03T23:39:53.918Z,2.63
2023-04-03T23:42:20.314Z,2.40
2023-04-03T23:44:46.752Z,2.53
2023-04-03T23:47:13.134Z,2.70
2023-04-03T23:49:39.539Z,2.23
2023-04-03T23:52:06.128Z,2.47
2023-04-03T23:54:32.536Z,2.37
2023-04-03T23:57:00.896Z,1.93
2023-04-03T23:59:27.613Z,2.57
